createdAt,value
2022-11-06T00:00:42.041Z,8.40
2022-11-06T00:03:11.415Z,8.30
2022-11-06T00:06:01.221Z,8.40
2022-11-06T00:08:37.826Z,8.40
2022-11-06T00:11:14.665Z,8.30
2022-11-06T00:13:44.970Z,8.30
2022-11-06T00:16:15.167Z,8.20
2022-11-06T00:18:44.513Z,8.30
2022-11-06T00:21:16.690Z,8.20
2022-11-06T00:23:47.812Z,8.20
2022-11-06T00:26:21.051Z,8.20
2022-11-06T00:28:51.255Z,8.20
2022-11-06T00:31:22.631Z,8.30
2022-11-06T00:33:52.323Z,8.30
2022-11-06T00:36:24.893Z,8.40
2022-11-06T00:38:54.546Z,8.40
2022-11-06T00:41:26.157Z,8.50
2022-11-06T00:43:56.875Z,8.50
2022-11-06T00:46:26.683Z,8.50
2022-11-06T00:48:56.762Z,8.50
2022-11-06T00:51:29.605Z,8.60
2022-11-06T00:54:01.253Z,8.50
2022-11-06T00:56:32.804Z,8.60
2022-11-06T00:59:03.442Z,8.60
2022-11-06T01:01:34.602Z,8.50
2022-11-06T01:04:06.489Z,8.50
2022-11-06T01:06:38.484Z,8.50
2022-11-06T01:09:08.981Z,8.40
2022-11-06T01:12:11.076Z,8.50
2022-11-06T01:14:31.933Z,8.40
2022-11-06T01:17:06.755Z,8.40
2022-11-06T01:19:35.845Z,8.50
2022-11-06T01:22:04.829Z,8.50
2022-11-06T01:24:33.627Z,8.40
2022-11-06T01:29:52.835Z,8.40
2022-11-06T01:32:21.642Z,8.30
2022-11-06T01:34:52.622Z,8.30
2022-11-06T01:37:21.641Z,8.30
2022-11-06T01:39:51.801Z,8.30
2022-11-06T01:42:23.148Z,8.30
2022-11-06T01:45:36.778Z,8.30
2022-11-06T01:48:06.736Z,8.30
2022-11-06T01:50:36.311Z,8.30
2022-11-06T01:53:06.212Z,8.20
2022-11-06T01:55:47.301Z,8.20
2022-11-06T01:58:22.000Z,8.20
2022-11-06T02:00:51.769Z,8.30
2022-11-06T02:03:21.290Z,8.30
2022-11-06T02:05:50.538Z,8.40
2022-11-06T02:08:23.035Z,8.50
2022-11-06T02:10:52.511Z,8.50
2022-11-06T02:13:38.940Z,8.60
2022-11-06T02:16:21.173Z,8.60
2022-11-06T02:19:29.377Z,8.70
2022-11-06T02:22:27.947Z,8.70
2022-11-06T02:25:27.291Z,8.70
2022-11-06T02:28:08.599Z,8.70
2022-11-06T02:30:46.316Z,8.60
2022-11-06T02:33:20.496Z,8.50
2022-11-06T02:35:57.877Z,8.50
2022-11-06T02:38:33.894Z,8.40
2022-11-06T02:41:08.356Z,8.40
2022-11-06T02:43:44.134Z,8.40
2022-11-06T02:46:20.914Z,8.40
2022-11-06T02:48:57.480Z,8.40
2022-11-06T02:51:33.224Z,8.30
2022-11-06T02:54:06.708Z,8.20
2022-11-06T02:56:43.933Z,8.10
2022-11-06T02:59:19.992Z,8.00
2022-11-06T03:01:53.724Z,7.90
2022-11-06T03:04:32.156Z,7.90
2022-11-06T03:07:12.182Z,7.90
2022-11-06T03:09:41.362Z,7.90
2022-11-06T03:12:23.330Z,7.90
2022-11-06T03:15:00.293Z,8.00
2022-11-06T03:17:42.415Z,8.00
2022-11-06T03:20:24.377Z,8.00
2022-11-06T03:23:02.293Z,8.00
2022-11-06T03:25:39.191Z,8.00
2022-11-06T03:28:14.740Z,8.00
2022-11-06T03:30:56.956Z,8.00
2022-11-06T03:33:35.701Z,8.00
2022-11-06T03:36:14.973Z,8.00
2022-11-06T03:38:50.114Z,8.00
2022-11-06T03:41:27.511Z,8.10
2022-11-06T03:44:02.656Z,8.10
2022-11-06T03:46:40.062Z,8.10
2022-11-06T03:49:15.007Z,8.20
2022-11-06T03:51:51.380Z,8.10
2022-11-06T03:54:27.367Z,8.10
2022-11-06T03:57:01.888Z,8.10
2022-11-06T03:59:41.376Z,8.00
2022-11-06T04:02:16.938Z,8.10
2022-11-06T04:04:52.689Z,8.10
2022-11-06T04:07:26.937Z,8.10
2022-11-06T04:13:20.865Z,8.10
2022-11-06T04:15:55.284Z,8.20
2022-11-06T04:18:25.552Z,8.20
2022-11-06T04:21:26.151Z,8.20
2022-11-06T04:24:28.119Z,8.20
2022-11-06T04:27:29.094Z,8.20
2022-11-06T04:30:12.688Z,8.20
2022-11-06T04:33:08.045Z,8.10
2022-11-06T04:35:55.679Z,8.10
2022-11-06T04:38:39.751Z,8.00
2022-11-06T04:41:23.202Z,7.90
2022-11-06T04:43:59.470Z,7.80
2022-11-06T04:46:33.993Z,7.70
2022-11-06T04:49:07.128Z,7.70
2022-11-06T04:51:40.520Z,7.70
2022-11-06T04:54:12.311Z,7.70
2022-11-06T04:56:45.708Z,7.80
2022-11-06T04:59:18.797Z,7.80
2022-11-06T05:01:48.008Z,7.90
2022-11-06T05:04:17.121Z,7.90
2022-11-06T05:06:47.529Z,8.00
2022-11-06T05:09:16.362Z,8.00
2022-11-06T05:11:45.243Z,8.00
2022-11-06T05:14:14.063Z,8.00
2022-11-06T05:16:43.222Z,8.00
2022-11-06T05:19:12.448Z,8.10
2022-11-06T05:21:58.511Z,8.10
2022-11-06T05:24:28.891Z,8.10
2022-11-06T05:27:00.858Z,8.20
2022-11-06T05:29:29.996Z,8.20
2022-11-06T05:31:58.810Z,8.20
2022-11-06T05:34:27.678Z,8.20
2022-11-06T05:36:56.701Z,8.30
2022-11-06T05:39:25.714Z,8.30
2022-11-06T05:41:55.940Z,8.30
2022-11-06T05:44:24.978Z,8.40
2022-11-06T05:46:53.738Z,8.50
2022-11-06T05:49:22.502Z,8.50
2022-11-06T05:51:51.338Z,8.50
2022-11-06T05:54:20.353Z,8.50
2022-11-06T05:56:49.383Z,8.60
2022-11-06T05:59:19.601Z,8.70
2022-11-06T06:01:48.732Z,8.80
2022-11-06T06:04:17.874Z,8.80
2022-11-06T06:06:47.048Z,8.90
2022-11-06T06:09:16.153Z,9.00
2022-11-06T06:11:45.165Z,9.10
2022-11-06T06:14:14.295Z,9.10
2022-11-06T06:16:44.401Z,9.10
2022-11-06T06:19:13.474Z,9.20
2022-11-06T06:21:42.165Z,9.10
2022-11-06T06:24:11.565Z,9.00
2022-11-06T06:26:40.426Z,8.90
2022-11-06T06:29:09.195Z,8.80
2022-11-06T06:31:38.076Z,8.80
2022-11-06T06:34:08.893Z,8.70
2022-11-06T06:36:37.635Z,8.70
2022-11-06T06:39:06.643Z,8.70
2022-11-06T06:41:35.599Z,8.70
2022-11-06T06:44:04.395Z,8.70
2022-11-06T06:46:36.330Z,8.80
2022-11-06T06:49:05.656Z,8.80
2022-11-06T06:51:35.923Z,8.90
2022-11-06T06:54:05.013Z,8.90
2022-11-06T06:56:33.906Z,9.00
2022-11-06T06:59:04.011Z,9.00
2022-11-06T07:01:32.870Z,9.10
2022-11-06T07:04:04.457Z,9.20
2022-11-06T07:06:34.906Z,9.20
2022-11-06T07:09:03.840Z,9.20
2022-11-06T07:11:32.632Z,9.30
2022-11-06T07:14:01.934Z,9.40
2022-11-06T07:16:32.529Z,9.50
2022-11-06T07:19:02.214Z,9.50
2022-11-06T07:21:30.965Z,9.40
2022-11-06T07:24:01.506Z,9.50
2022-11-06T07:26:30.571Z,9.50
2022-11-06T07:28:59.386Z,9.50
2022-11-06T07:31:28.504Z,9.50
2022-11-06T07:34:03.578Z,9.60
2022-11-06T07:36:38.153Z,9.60
2022-11-06T07:39:08.672Z,9.60
2022-11-06T07:41:38.449Z,9.60
2022-11-06T07:44:08.514Z,9.60
2022-11-06T07:46:37.351Z,9.70
2022-11-06T07:49:06.418Z,9.70
2022-11-06T07:51:35.268Z,9.70
2022-11-06T07:54:04.535Z,9.70
2022-11-06T07:56:35.000Z,9.60
2022-11-06T07:59:03.807Z,9.50
2022-11-06T08:01:33.768Z,9.50
2022-11-06T08:04:02.912Z,9.50
2022-11-06T08:06:32.166Z,9.50
2022-11-06T08:09:01.058Z,9.60
2022-11-06T08:11:29.848Z,9.70
2022-11-06T08:14:02.266Z,9.70
2022-11-06T08:16:31.216Z,9.80
2022-11-06T08:19:00.264Z,9.80
2022-11-06T08:21:29.546Z,9.70
2022-11-06T08:23:58.506Z,9.70
2022-11-06T08:26:27.670Z,9.70
2022-11-06T08:28:57.813Z,9.70
2022-11-06T08:31:28.206Z,9.60
2022-11-06T08:33:57.029Z,9.70
2022-11-06T08:36:27.542Z,9.70
2022-11-06T08:38:56.384Z,9.80
2022-11-06T08:41:25.296Z,9.80
2022-11-06T08:43:55.043Z,9.80
2022-11-06T08:46:24.380Z,9.80
2022-11-06T08:48:54.699Z,9.90
2022-11-06T08:51:23.622Z,9.80
2022-11-06T08:53:53.257Z,9.80
2022-11-06T08:56:22.210Z,9.70
2022-11-06T08:58:55.348Z,9.70
2022-11-06T09:01:25.440Z,9.80
2022-11-06T09:03:55.747Z,9.90
2022-11-06T09:06:24.591Z,9.90
2022-11-06T09:08:53.568Z,9.80
2022-11-06T09:11:25.139Z,9.80
2022-11-06T09:13:55.304Z,9.80
2022-11-06T09:16:24.901Z,9.90
2022-11-06T09:18:57.170Z,10.00
2022-11-06T09:21:26.070Z,10.00
2022-11-06T09:23:57.469Z,10.10
2022-11-06T09:26:26.480Z,10.20
2022-11-06T09:28:57.547Z,10.20
2022-11-06T09:31:32.626Z,10.20
2022-11-06T09:34:05.880Z,10.30
2022-11-06T09:36:37.334Z,10.30
2022-11-06T09:39:07.141Z,10.40
2022-11-06T09:41:54.578Z,10.30
2022-11-06T09:44:47.928Z,10.50
2022-11-06T09:47:24.267Z,10.60
2022-11-06T09:49:58.518Z,10.70
2022-11-06T09:52:38.529Z,10.70
2022-11-06T09:55:16.476Z,10.50
2022-11-06T09:57:52.548Z,10.40
2022-11-06T10:00:21.945Z,10.20
2022-11-06T10:02:53.956Z,10.10
2022-11-06T10:05:29.977Z,10.00
2022-11-06T10:08:03.036Z,10.00
2022-11-06T10:10:41.791Z,10.10
2022-11-06T10:13:54.535Z,10.10
2022-11-06T10:16:36.211Z,10.00
2022-11-06T10:19:25.444Z,10.20
2022-11-06T10:22:10.154Z,10.20
2022-11-06T10:24:46.995Z,10.30
2022-11-06T10:27:19.604Z,10.50
2022-11-06T10:30:11.793Z,10.50
2022-11-06T10:33:24.964Z,10.60
2022-11-06T10:36:04.292Z,10.50
2022-11-06T10:38:40.498Z,10.50
2022-11-06T10:41:20.000Z,10.50
2022-11-06T10:43:55.210Z,10.60
2022-11-06T10:46:35.359Z,10.60
2022-11-06T10:49:14.030Z,10.60
2022-11-06T10:52:17.697Z,10.80
2022-11-06T10:55:55.355Z,11.00
2022-11-06T10:58:30.973Z,11.00
2022-11-06T11:01:04.873Z,11.20
2022-11-06T11:03:38.096Z,11.20
2022-11-06T11:06:08.096Z,11.10
2022-11-06T11:08:42.174Z,11.10
2022-11-06T11:11:28.683Z,11.10
2022-11-06T11:14:25.052Z,11.20
2022-11-06T11:16:54.254Z,11.70
2022-11-06T11:19:35.978Z,12.00
2022-11-06T11:22:21.448Z,12.10
2022-11-06T11:25:03.289Z,12.10
2022-11-06T11:27:39.654Z,12.60
2022-11-06T11:30:22.927Z,12.50
2022-11-06T11:32:52.198Z,12.30
2022-11-06T11:35:27.751Z,12.50
2022-11-06T11:38:12.234Z,12.60
2022-11-06T11:40:42.160Z,12.80
2022-11-06T11:43:27.974Z,13.40
2022-11-06T11:46:20.959Z,14.00
2022-11-06T11:48:52.993Z,13.90
2022-11-06T11:51:37.909Z,13.80
2022-11-06T11:54:20.076Z,14.50
2022-11-06T11:57:09.806Z,14.80
2022-11-06T11:59:48.106Z,13.70
2022-11-06T12:02:26.369Z,13.10
2022-11-06T12:05:02.618Z,12.60
2022-11-06T12:07:35.374Z,12.70
2022-11-06T12:10:23.324Z,13.50
2022-11-06T12:12:54.441Z,14.50
2022-11-06T12:15:31.580Z,14.90
2022-11-06T12:18:07.200Z,14.80
2022-11-06T12:20:48.924Z,13.90
2022-11-06T12:23:26.785Z,13.70
2022-11-06T12:26:07.248Z,13.50
2022-11-06T12:28:41.752Z,13.30
2022-11-06T12:31:29.067Z,13.50
2022-11-06T12:34:06.155Z,13.40
2022-11-06T12:36:43.043Z,13.10
2022-11-06T12:39:17.930Z,12.90
2022-11-06T12:41:51.645Z,13.00
2022-11-06T12:44:20.668Z,13.00
2022-11-06T12:47:01.635Z,13.00
2022-11-06T12:50:28.472Z,13.30
2022-11-06T12:53:21.743Z,13.50
2022-11-06T12:55:58.329Z,13.40
2022-11-06T12:58:52.840Z,13.00
2022-11-06T13:01:44.919Z,13.10
2022-11-06T13:04:38.227Z,13.10
2022-11-06T13:07:36.175Z,13.20
2022-11-06T13:10:25.371Z,13.40
2022-11-06T13:13:17.249Z,13.30
2022-11-06T13:16:01.612Z,13.10
2022-11-06T13:18:34.479Z,13.10
2022-11-06T13:21:15.076Z,12.90
2022-11-06T13:23:51.058Z,12.80
2022-11-06T13:26:33.830Z,12.80
2022-11-06T13:29:07.138Z,12.80
2022-11-06T13:31:41.994Z,12.80
2022-11-06T13:34:23.608Z,12.90
2022-11-06T13:36:55.948Z,12.90
2022-11-06T13:39:34.375Z,12.90
2022-11-06T13:42:06.732Z,12.90
2022-11-06T13:44:36.914Z,12.90
2022-11-06T13:47:15.832Z,13.00
2022-11-06T13:49:58.980Z,13.10
2022-11-06T13:52:40.743Z,13.10
2022-11-06T13:55:24.318Z,13.10
2022-11-06T13:58:32.998Z,13.00
2022-11-06T14:01:24.661Z,12.90
2022-11-06T14:04:38.138Z,12.80
2022-11-06T14:07:11.788Z,12.80
2022-11-06T14:09:48.190Z,12.70
2022-11-06T14:12:22.934Z,12.60
2022-11-06T14:15:13.681Z,12.40
2022-11-06T14:17:42.729Z,12.20
2022-11-06T14:20:33.226Z,12.10
2022-11-06T14:23:49.040Z,12.00
2022-11-06T14:26:41.915Z,11.90
2022-11-06T14:29:57.764Z,12.00
2022-11-06T14:32:50.348Z,12.10
2022-11-06T14:35:51.718Z,12.40
2022-11-06T14:38:40.965Z,12.50
2022-11-06T14:41:56.151Z,12.60
2022-11-06T14:44:47.627Z,12.30
2022-11-06T14:47:31.216Z,12.00
2022-11-06T14:50:06.151Z,11.70
2022-11-06T14:52:47.067Z,11.50
2022-11-06T14:55:32.787Z,11.30
2022-11-06T14:58:19.389Z,11.10
2022-11-06T15:00:55.679Z,10.90
2022-11-06T15:03:32.807Z,10.80
2022-11-06T15:06:21.316Z,10.70
2022-11-06T15:09:05.170Z,10.60
2022-11-06T15:12:00.916Z,10.50
2022-11-06T15:15:16.785Z,10.40
2022-11-06T15:17:46.720Z,10.40
2022-11-06T15:20:28.766Z,10.20
2022-11-06T15:23:15.831Z,10.20
2022-11-06T15:26:02.534Z,10.20
2022-11-06T15:28:43.062Z,10.20
2022-11-06T15:31:19.690Z,10.20
2022-11-06T15:34:03.560Z,10.20
2022-11-06T15:36:41.215Z,10.20
2022-11-06T15:39:34.383Z,10.20
2022-11-06T15:42:04.224Z,10.10
2022-11-06T15:44:33.267Z,10.00
2022-11-06T15:47:03.658Z,10.00
2022-11-06T15:49:33.007Z,9.90
2022-11-06T15:52:08.648Z,9.80
2022-11-06T15:54:40.521Z,9.90
2022-11-06T15:57:24.373Z,9.90
2022-11-06T16:00:07.748Z,9.90
2022-11-06T16:02:49.937Z,9.90
2022-11-06T16:05:21.621Z,9.90
2022-11-06T16:07:52.697Z,10.00
2022-11-06T16:10:25.023Z,10.00
2022-11-06T16:12:54.932Z,10.00
2022-11-06T16:15:51.941Z,10.10
2022-11-06T16:18:29.090Z,10.10
2022-11-06T16:21:02.504Z,10.10
2022-11-06T16:23:39.400Z,10.00
2022-11-06T16:26:12.482Z,9.90
2022-11-06T16:28:46.180Z,9.90
2022-11-06T16:31:19.110Z,9.90
2022-11-06T16:33:58.961Z,9.90
2022-11-06T16:36:30.463Z,9.90
2022-11-06T16:39:49.361Z,10.00
2022-11-06T16:42:29.565Z,10.00
2022-11-06T16:45:19.871Z,10.10
2022-11-06T16:48:26.758Z,10.10
2022-11-06T16:51:00.396Z,10.10
2022-11-06T16:53:33.411Z,10.10
2022-11-06T16:56:06.697Z,10.10
2022-11-06T16:58:47.826Z,10.00
2022-11-06T17:01:31.340Z,10.00
2022-11-06T17:04:32.588Z,10.00
2022-11-06T17:07:23.512Z,10.00
2022-11-06T17:09:53.388Z,10.00
2022-11-06T17:12:22.668Z,9.90
2022-11-06T17:14:52.157Z,9.90
2022-11-06T17:17:27.978Z,9.90
2022-11-06T17:19:57.334Z,9.90
2022-11-06T17:22:28.578Z,9.80
2022-11-06T17:24:57.402Z,9.70
2022-11-06T17:27:26.477Z,9.60
2022-11-06T17:29:55.631Z,9.60
2022-11-06T17:32:24.653Z,9.60
2022-11-06T17:34:53.659Z,9.70
2022-11-06T17:37:22.551Z,9.60
2022-11-06T17:39:52.924Z,9.60
2022-11-06T17:42:21.876Z,9.50
2022-11-06T17:44:50.785Z,9.50
2022-11-06T17:47:19.747Z,9.50
2022-11-06T17:49:48.990Z,9.40
2022-11-06T17:52:19.274Z,9.40
2022-11-06T17:54:48.076Z,9.40
2022-11-06T17:57:23.767Z,9.40
2022-11-06T17:59:52.994Z,9.30
2022-11-06T18:02:47.608Z,9.30
2022-11-06T18:05:14.207Z,9.40
2022-11-06T18:07:43.085Z,9.30
2022-11-06T18:10:12.252Z,9.30
2022-11-06T18:12:42.596Z,9.30
2022-11-06T18:15:12.026Z,9.30
2022-11-06T18:17:41.152Z,9.30
2022-11-06T18:20:11.875Z,9.30
2022-11-06T18:22:40.904Z,9.30
2022-11-06T18:25:10.375Z,9.20
2022-11-06T18:27:39.392Z,9.20
2022-11-06T18:30:12.144Z,9.10
2022-11-06T18:32:41.758Z,9.00
2022-11-06T18:35:11.606Z,9.00
2022-11-06T18:37:40.467Z,9.10
2022-11-06T18:40:12.557Z,9.00
2022-11-06T18:42:41.472Z,9.00
2022-11-06T18:45:12.426Z,9.00
2022-11-06T18:47:41.321Z,9.10
2022-11-06T18:50:11.377Z,9.10
2022-11-06T18:52:57.004Z,9.10
2022-11-06T18:55:26.781Z,9.00
2022-11-06T18:57:56.242Z,9.00
2022-11-06T19:00:26.585Z,9.00
2022-11-06T19:02:55.498Z,9.00
2022-11-06T19:05:24.512Z,9.00
2022-11-06T19:07:59.090Z,9.00
2022-11-06T19:10:31.380Z,9.00
2022-11-06T19:13:00.365Z,9.00
2022-11-06T19:15:31.043Z,9.00
2022-11-06T19:18:00.054Z,8.90
2022-11-06T19:20:29.719Z,8.90
2022-11-06T19:22:58.958Z,8.90
2022-11-06T19:25:27.945Z,8.90
2022-11-06T19:27:56.992Z,8.90
2022-11-06T19:30:26.076Z,9.00
2022-11-06T19:32:56.357Z,9.00
2022-11-06T19:35:25.774Z,9.10
2022-11-06T19:37:54.818Z,9.10
2022-11-06T19:40:24.380Z,9.10
2022-11-06T19:42:53.577Z,9.10
2022-11-06T19:45:25.093Z,9.20
2022-11-06T19:47:56.092Z,9.10
2022-11-06T19:50:53.505Z,9.20
2022-11-06T19:53:17.998Z,9.10
2022-11-06T19:55:47.657Z,9.10
2022-11-06T19:58:18.490Z,9.00
2022-11-06T20:00:48.578Z,9.00
2022-11-06T20:03:19.524Z,9.00
2022-11-06T20:05:48.295Z,9.00
2022-11-06T20:08:17.189Z,9.10
2022-11-06T20:10:46.085Z,9.10
2022-11-06T20:13:15.609Z,9.10
2022-11-06T20:15:44.802Z,9.10
2022-11-06T20:18:13.891Z,9.20
2022-11-06T20:20:44.368Z,9.20
2022-11-06T20:23:13.661Z,9.20
2022-11-06T20:25:42.781Z,9.20
2022-11-06T20:28:14.270Z,9.10
2022-11-06T20:30:43.473Z,9.20
2022-11-06T20:33:12.648Z,9.20
2022-11-06T20:35:43.373Z,9.20
2022-11-06T20:38:12.582Z,9.20
2022-11-06T20:40:41.802Z,9.20
2022-11-06T20:43:10.828Z,9.20
2022-11-06T20:45:40.034Z,9.10
2022-11-06T20:48:10.437Z,9.10
2022-11-06T20:50:39.572Z,9.10
2022-11-06T20:53:09.977Z,9.00
2022-11-06T20:55:38.708Z,9.10
2022-11-06T20:58:08.477Z,9.00
2022-11-06T21:00:37.422Z,9.00
2022-11-06T21:03:06.312Z,9.00
2022-11-06T21:05:37.129Z,9.00
2022-11-06T21:08:09.110Z,9.00
2022-11-06T21:10:39.853Z,9.10
2022-11-06T21:13:08.678Z,9.00
2022-11-06T21:15:37.732Z,9.00
2022-11-06T21:18:06.687Z,9.00
2022-11-06T21:20:40.112Z,9.00
2022-11-06T21:23:09.212Z,9.00
2022-11-06T21:25:45.072Z,9.00
2022-11-06T21:28:15.153Z,9.00
2022-11-06T21:30:44.938Z,9.00
2022-11-06T21:33:14.538Z,9.00
2022-11-06T21:35:44.174Z,9.00
2022-11-06T21:38:13.103Z,9.00
2022-11-06T21:40:43.475Z,9.00
2022-11-06T21:43:12.766Z,9.00
2022-11-06T21:45:41.775Z,9.00
2022-11-06T21:48:25.899Z,9.10
2022-11-06T21:51:04.284Z,9.00
2022-11-06T21:53:50.557Z,9.10
2022-11-06T21:56:25.901Z,9.20
2022-11-06T21:58:58.077Z,9.20
2022-11-06T22:01:28.713Z,9.20
2022-11-06T22:03:57.626Z,9.30
2022-11-06T22:06:28.980Z,9.30
2022-11-06T22:09:00.657Z,9.30
2022-11-06T22:11:33.306Z,9.30
2022-11-06T22:14:05.546Z,9.30
2022-11-06T22:16:37.575Z,9.40
2022-11-06T22:19:08.483Z,9.30
2022-11-06T22:21:39.659Z,9.40
2022-11-06T22:24:15.797Z,9.40
2022-11-06T22:26:46.001Z,9.40
2022-11-06T22:29:16.920Z,9.40
2022-11-06T22:31:45.772Z,9.40
2022-11-06T22:34:15.225Z,9.40
2022-11-06T22:36:44.318Z,9.40
2022-11-06T22:39:13.877Z,9.40
2022-11-06T22:41:44.198Z,9.40
2022-11-06T22:44:13.441Z,9.40
2022-11-06T22:46:42.440Z,9.40
2022-11-06T22:49:11.956Z,9.40
2022-11-06T22:51:41.047Z,9.40
2022-11-06T22:54:10.973Z,9.40
2022-11-06T22:56:39.735Z,9.40
2022-11-06T22:59:10.435Z,9.40
2022-11-06T23:01:43.035Z,9.30
2022-11-06T23:04:16.037Z,9.30
2022-11-06T23:06:46.238Z,9.30
2022-11-06T23:09:15.933Z,9.20
2022-11-06T23:11:47.533Z,9.20
2022-11-06T23:14:18.320Z,9.10
2022-11-06T23:17:00.889Z,9.00
2022-11-06T23:19:33.211Z,9.00
2022-11-06T23:22:19.628Z,8.90
2022-11-06T23:24:48.463Z,8.80
2022-11-06T23:27:17.440Z,8.90
2022-11-06T23:29:47.864Z,8.90
2022-11-06T23:32:16.735Z,9.00
2022-11-06T23:34:45.588Z,9.00
2022-11-06T23:37:14.597Z,9.00
2022-11-06T23:39:43.571Z,9.00
2022-11-06T23:42:15.844Z,9.00
2022-11-06T23:45:04.038Z,9.10
2022-11-06T23:47:33.429Z,9.10
2022-11-06T23:50:02.876Z,9.10
2022-11-06T23:52:31.748Z,9.10
2022-11-06T23:55:00.656Z,9.10
2022-11-06T23:57:29.449Z,9.10
2022-11-06T23:59:59.823Z,9.10
